createdAt,value
2019-03-23T00:00:32.645Z,7.15
2019-03-23T00:01:32.637Z,7.16
2019-03-23T00:02:32.619Z,7.06
2019-03-23T00:03:32.637Z,7.12
2019-03-23T00:04:32.758Z,7.05
2019-03-23T00:05:32.616Z,7.17
2019-03-23T00:06:32.579Z,7.15
2019-03-23T00:07:32.574Z,7.07
2019-03-23T00:08:32.560Z,7.12
2019-03-23T00:09:32.571Z,7.12
2019-03-23T00:10:32.533Z,7.12
2019-03-23T00:11:32.523Z,7.03
2019-03-23T00:12:32.510Z,7.12
2019-03-23T00:13:32.509Z,7.06
2019-03-23T00:14:32.591Z,7.05
2019-03-23T00:15:32.496Z,7.06
2019-03-23T00:16:32.471Z,7.05
2019-03-23T00:17:32.463Z,7.03
2019-03-23T00:18:32.455Z,7.05
2019-03-23T00:19:32.452Z,7.03
2019-03-23T00:20:32.427Z,7.02
2019-03-23T00:21:32.406Z,7.07
2019-03-23T00:22:32.398Z,7.06
2019-03-23T00:23:32.385Z,7.06
2019-03-23T00:24:32.417Z,7.02
2019-03-23T00:25:32.361Z,7.07
2019-03-23T00:26:32.366Z,7.06
2019-03-23T00:27:32.519Z,7.05
2019-03-23T00:28:32.339Z,7.06
2019-03-23T00:29:32.341Z,7.05
2019-03-23T00:30:32.319Z,6.97
2019-03-23T00:31:32.297Z,7.02
2019-03-23T00:32:32.301Z,7.07
2019-03-23T00:33:32.276Z,7.05
2019-03-23T00:34:32.280Z,6.89
2019-03-23T00:35:32.249Z,6.92
2019-03-23T00:36:40.998Z,6.88
2019-03-23T00:37:33.226Z,6.88
2019-03-23T00:38:32.231Z,6.81
2019-03-23T00:39:32.238Z,6.79
2019-03-23T00:40:32.194Z,6.79
2019-03-23T00:41:32.195Z,6.74
2019-03-23T00:42:32.178Z,6.69
2019-03-23T00:43:32.178Z,6.69
2019-03-23T00:44:32.178Z,6.80
2019-03-23T00:45:32.156Z,6.69
2019-03-23T00:46:32.127Z,6.61
2019-03-23T00:47:32.140Z,6.67
2019-03-23T00:48:32.108Z,6.69
2019-03-23T00:49:32.126Z,6.70
2019-03-23T00:50:32.094Z,6.64
2019-03-23T00:51:32.070Z,6.61
2019-03-23T00:52:32.069Z,6.61
2019-03-23T00:53:32.056Z,6.64
2019-03-23T00:54:32.047Z,6.67
2019-03-23T00:55:32.054Z,6.64
2019-03-23T00:56:32.010Z,6.69
2019-03-23T00:57:32.003Z,6.71
2019-03-23T00:58:32.001Z,6.69
2019-03-23T00:59:31.982Z,6.64
2019-03-23T01:00:31.993Z,6.67
2019-03-23T01:01:31.984Z,6.66
2019-03-23T01:02:31.947Z,6.66
2019-03-23T01:03:31.936Z,6.64
2019-03-23T01:04:31.940Z,6.67
2019-03-23T01:05:32.017Z,6.69
2019-03-23T01:06:31.916Z,6.66
2019-03-23T01:07:31.895Z,6.64
2019-03-23T01:08:31.884Z,6.71
2019-03-23T01:09:31.868Z,6.54
2019-03-23T01:10:31.879Z,6.56
2019-03-23T01:11:31.865Z,6.59
2019-03-23T01:12:31.848Z,6.56
2019-03-23T01:13:31.870Z,6.49
2019-03-23T01:14:31.813Z,6.51
2019-03-23T01:15:32.073Z,6.48
2019-03-23T01:16:31.807Z,6.36
2019-03-23T01:17:31.797Z,6.48
2019-03-23T01:18:31.762Z,6.38
2019-03-23T01:19:31.771Z,6.41
2019-03-23T01:20:31.770Z,6.31
2019-03-23T01:21:31.735Z,6.34
2019-03-23T01:22:31.723Z,6.22
2019-03-23T01:23:31.726Z,6.27
2019-03-23T01:24:31.706Z,6.18
2019-03-23T01:25:31.709Z,6.19
2019-03-23T01:26:31.676Z,6.17
2019-03-23T01:27:31.679Z,6.09
2019-03-23T01:28:31.660Z,6.09
2019-03-23T01:29:31.664Z,6.03
2019-03-23T01:30:31.661Z,6.11
2019-03-23T01:31:31.650Z,6.09
2019-03-23T01:32:31.609Z,6.08
2019-03-23T01:33:31.594Z,6.01
2019-03-23T01:34:31.723Z,5.97
2019-03-23T01:35:31.603Z,5.97
2019-03-23T01:36:31.568Z,6.04
2019-03-23T01:37:31.549Z,5.96
2019-03-23T01:38:31.545Z,5.99
2019-03-23T01:39:31.535Z,5.89
2019-03-23T01:40:31.550Z,5.86
2019-03-23T01:41:31.507Z,5.94
2019-03-23T01:42:31.501Z,5.91
2019-03-23T01:43:31.490Z,5.79
2019-03-23T01:44:31.479Z,5.85
2019-03-23T01:45:31.487Z,5.81
2019-03-23T01:46:31.463Z,5.71
2019-03-23T01:47:31.444Z,5.71
2019-03-23T01:48:31.430Z,5.67
2019-03-23T01:49:31.415Z,5.65
2019-03-23T01:50:31.442Z,5.64
2019-03-23T01:51:31.399Z,5.72
2019-03-23T01:52:31.403Z,5.67
2019-03-23T01:53:31.377Z,5.68
2019-03-23T01:54:31.363Z,5.63
2019-03-23T01:55:31.563Z,5.65
2019-03-23T01:56:31.338Z,5.61
2019-03-23T01:57:31.339Z,5.65
2019-03-23T01:58:31.316Z,5.71
2019-03-23T01:59:31.302Z,5.75
2019-03-23T02:00:31.317Z,5.74
2019-03-23T02:01:31.288Z,5.67
2019-03-23T02:02:31.272Z,5.81
2019-03-23T02:03:31.273Z,5.81
2019-03-23T02:04:31.244Z,5.76
2019-03-23T02:05:31.293Z,5.68
2019-03-23T02:06:31.229Z,5.75
2019-03-23T02:07:31.238Z,5.75
2019-03-23T02:08:31.208Z,5.90
2019-03-23T02:09:31.217Z,5.85
2019-03-23T02:10:31.254Z,5.89
2019-03-23T02:11:31.172Z,5.86
2019-03-23T02:12:31.162Z,5.81
2019-03-23T02:13:31.145Z,5.89
2019-03-23T02:14:31.139Z,5.86
2019-03-23T02:15:31.158Z,5.86
2019-03-23T02:16:31.114Z,5.89
2019-03-23T02:17:31.106Z,5.86
2019-03-23T02:18:31.099Z,5.91
2019-03-23T02:19:31.083Z,6.00
2019-03-23T02:20:31.087Z,5.94
2019-03-23T02:21:31.148Z,6.01
2019-03-23T02:22:31.048Z,6.09
2019-03-23T02:23:31.039Z,6.06
2019-03-23T02:24:31.035Z,6.00
2019-03-23T02:25:31.042Z,6.08
2019-03-23T02:26:31.053Z,6.12
2019-03-23T02:27:30.996Z,6.12
2019-03-23T02:28:30.981Z,6.17
2019-03-23T02:29:30.972Z,6.19
2019-03-23T02:30:31.010Z,6.17
2019-03-23T02:31:32.061Z,6.19
2019-03-23T02:32:31.023Z,6.19
2019-03-23T02:33:30.924Z,6.30
2019-03-23T02:34:30.919Z,6.27
2019-03-23T02:35:30.945Z,6.37
2019-03-23T02:36:30.914Z,6.34
2019-03-23T02:37:30.884Z,6.44
2019-03-23T02:38:30.870Z,6.37
2019-03-23T02:39:30.870Z,6.38
2019-03-23T02:40:30.849Z,6.44
2019-03-23T02:41:30.869Z,6.41
2019-03-23T02:42:30.822Z,6.48
2019-03-23T02:43:30.839Z,6.61
2019-03-23T02:44:30.813Z,6.59
2019-03-23T02:45:30.823Z,6.54
2019-03-23T02:46:30.816Z,6.55
2019-03-23T02:47:30.769Z,6.62
2019-03-23T02:48:30.761Z,6.70
2019-03-23T02:49:30.753Z,6.70
2019-03-23T02:50:30.773Z,6.61
2019-03-23T02:51:30.789Z,6.58
2019-03-23T02:52:30.729Z,6.64
2019-03-23T02:53:30.708Z,6.70
2019-03-23T02:54:30.686Z,6.79
2019-03-23T02:55:30.680Z,6.69
2019-03-23T02:56:30.695Z,6.70
2019-03-23T02:57:30.666Z,6.70
2019-03-23T02:58:30.643Z,6.76
2019-03-23T02:59:30.638Z,6.69
2019-03-23T03:00:30.629Z,6.77
2019-03-23T03:01:30.849Z,6.71
2019-03-23T03:02:30.602Z,6.73
2019-03-23T03:03:30.604Z,6.79
2019-03-23T03:04:30.577Z,6.80
2019-03-23T03:05:30.569Z,6.77
2019-03-23T03:06:30.571Z,6.77
2019-03-23T03:07:41.171Z,6.84
2019-03-23T03:08:31.528Z,6.76
2019-03-23T03:09:30.527Z,6.74
2019-03-23T03:10:30.515Z,6.76
2019-03-23T03:11:30.541Z,6.77
2019-03-23T03:12:30.497Z,6.73
2019-03-23T03:13:30.481Z,6.74
2019-03-23T03:14:30.621Z,6.74
2019-03-23T03:15:30.454Z,6.79
2019-03-23T03:16:30.441Z,6.76
2019-03-23T03:17:30.449Z,6.77
2019-03-23T03:18:30.426Z,6.73
2019-03-23T03:19:30.408Z,6.70
2019-03-23T03:20:30.408Z,6.73
2019-03-23T03:21:30.382Z,6.74
2019-03-23T03:22:30.423Z,6.70
2019-03-23T03:23:30.395Z,6.76
2019-03-23T03:24:30.348Z,6.76
2019-03-23T03:25:30.343Z,6.73
2019-03-23T03:26:30.340Z,6.76
2019-03-23T03:27:30.338Z,6.79
2019-03-23T03:28:30.304Z,6.76
2019-03-23T03:29:30.299Z,6.76
2019-03-23T03:30:30.285Z,6.71
2019-03-23T03:31:30.284Z,6.76
2019-03-23T03:32:30.313Z,6.71
2019-03-23T03:33:30.261Z,6.71
2019-03-23T03:34:30.245Z,6.67
2019-03-23T03:35:30.230Z,6.76
2019-03-23T03:36:30.378Z,6.66
2019-03-23T03:37:30.255Z,6.79
2019-03-23T03:38:30.199Z,6.74
2019-03-23T03:39:30.186Z,6.67
2019-03-23T03:40:30.180Z,6.71
2019-03-23T03:41:30.176Z,6.76
2019-03-23T03:42:30.180Z,6.77
2019-03-23T03:43:30.158Z,6.70
2019-03-23T03:44:30.231Z,6.77
2019-03-23T03:45:30.141Z,6.64
2019-03-23T03:46:30.123Z,6.79
2019-03-23T03:47:30.134Z,6.70
2019-03-23T03:48:30.083Z,6.70
2019-03-23T03:49:30.070Z,6.76
2019-03-23T03:50:30.064Z,6.67
2019-03-23T03:51:30.056Z,6.70
2019-03-23T03:52:30.038Z,6.81
2019-03-23T03:53:30.048Z,6.77
2019-03-23T03:54:30.008Z,6.71
2019-03-23T03:55:30.004Z,6.64
2019-03-23T03:56:29.999Z,6.62
2019-03-23T03:57:29.980Z,6.64
2019-03-23T03:58:29.986Z,6.71
2019-03-23T03:59:29.960Z,6.67
2019-03-23T04:00:29.952Z,6.67
2019-03-23T04:01:29.931Z,6.73
2019-03-23T04:02:29.927Z,6.73
2019-03-23T04:03:29.934Z,6.74
2019-03-23T04:04:29.900Z,6.71
2019-03-23T04:05:29.893Z,6.64
2019-03-23T04:06:29.877Z,6.71
2019-03-23T04:07:29.868Z,6.64
2019-03-23T04:08:29.981Z,6.69
2019-03-23T04:09:29.847Z,6.69
2019-03-23T04:10:29.829Z,6.61
2019-03-23T04:11:29.830Z,6.69
2019-03-23T04:12:29.807Z,6.66
2019-03-23T04:13:29.818Z,6.67
2019-03-23T04:14:29.790Z,6.64
2019-03-23T04:15:29.783Z,6.69
2019-03-23T04:16:29.768Z,6.71
2019-03-23T04:17:29.768Z,6.67
2019-03-23T04:18:29.770Z,6.74
2019-03-23T04:19:29.730Z,6.67
2019-03-23T04:20:29.731Z,6.84
2019-03-23T04:21:29.723Z,6.66
2019-03-23T04:22:29.719Z,6.71
2019-03-23T04:23:29.714Z,6.67
2019-03-23T04:24:29.675Z,6.66
2019-03-23T04:25:29.679Z,6.64
2019-03-23T04:26:29.689Z,6.66
2019-03-23T04:27:29.647Z,6.56
2019-03-23T04:28:29.665Z,6.67
2019-03-23T04:29:29.615Z,6.64
2019-03-23T04:30:29.615Z,6.71
2019-03-23T04:31:29.597Z,6.69
2019-03-23T04:32:29.587Z,6.64
2019-03-23T04:33:29.600Z,6.67
2019-03-23T04:34:29.570Z,6.62
2019-03-23T04:35:29.554Z,6.62
2019-03-23T04:36:29.554Z,6.64
2019-03-23T04:37:29.533Z,6.67
2019-03-23T04:38:29.537Z,6.61
2019-03-23T04:39:29.533Z,6.64
2019-03-23T04:40:29.509Z,6.56
2019-03-23T04:41:29.497Z,6.70
2019-03-23T04:42:29.486Z,6.66
2019-03-23T04:43:29.480Z,6.64
2019-03-23T04:44:29.450Z,6.67
2019-03-23T04:45:29.438Z,6.67
2019-03-23T04:46:29.428Z,6.69
2019-03-23T04:47:29.420Z,6.56
2019-03-23T04:48:29.426Z,6.54
2019-03-23T04:49:29.398Z,6.56
2019-03-23T04:50:29.391Z,6.64
2019-03-23T04:51:29.372Z,6.58
2019-03-23T04:52:29.362Z,6.55
2019-03-23T04:53:29.374Z,6.55
2019-03-23T04:54:29.341Z,6.56
2019-03-23T04:55:29.329Z,6.55
2019-03-23T04:56:29.316Z,6.59
2019-03-23T04:57:29.306Z,6.62
2019-03-23T04:58:29.314Z,6.59
2019-03-23T04:59:29.286Z,6.59
2019-03-23T05:00:29.272Z,6.61
2019-03-23T05:01:29.280Z,6.56
2019-03-23T05:02:29.253Z,6.59
2019-03-23T05:03:29.261Z,6.66
2019-03-23T05:04:29.233Z,6.61
2019-03-23T05:05:29.234Z,6.59
2019-03-23T05:06:29.209Z,6.56
2019-03-23T05:07:29.193Z,6.58
2019-03-23T05:08:33.507Z,6.62
2019-03-23T05:09:29.168Z,6.58
2019-03-23T05:10:29.157Z,6.43
2019-03-23T05:11:29.150Z,6.46
2019-03-23T05:12:29.140Z,6.51
2019-03-23T05:13:29.122Z,6.48
2019-03-23T05:14:29.148Z,6.51
2019-03-23T05:15:29.112Z,6.48
2019-03-23T05:16:29.092Z,6.55
2019-03-23T05:17:29.083Z,6.46
2019-03-23T05:18:29.073Z,6.52
2019-03-23T05:19:29.081Z,6.38
2019-03-23T05:20:29.050Z,6.41
2019-03-23T05:21:29.048Z,6.36
2019-03-23T05:22:29.033Z,6.43
2019-03-23T05:23:29.019Z,6.41
2019-03-23T05:24:29.023Z,6.36
2019-03-23T05:25:28.992Z,6.40
2019-03-23T05:26:28.978Z,6.41
2019-03-23T05:27:28.968Z,6.40
2019-03-23T05:28:28.958Z,6.40
2019-03-23T05:29:28.967Z,6.44
2019-03-23T05:30:28.938Z,6.38
2019-03-23T05:31:28.934Z,6.54
2019-03-23T05:32:28.918Z,6.46
2019-03-23T05:33:28.904Z,6.54
2019-03-23T05:34:28.918Z,6.48
2019-03-23T05:35:28.883Z,6.52
2019-03-23T05:36:28.864Z,6.55
2019-03-23T05:37:28.854Z,6.56
2019-03-23T05:38:28.857Z,6.51
2019-03-23T05:39:28.859Z,6.59
2019-03-23T05:40:28.830Z,6.56
2019-03-23T05:41:30.876Z,6.56
2019-03-23T05:42:28.802Z,6.66
2019-03-23T05:43:28.790Z,6.56
2019-03-23T05:44:28.799Z,6.51
2019-03-23T05:45:28.772Z,6.56
2019-03-23T05:46:28.758Z,6.62
2019-03-23T05:47:28.744Z,6.54
2019-03-23T05:48:28.741Z,6.61
2019-03-23T05:49:28.746Z,6.66
2019-03-23T05:50:28.716Z,6.69
2019-03-23T05:51:28.700Z,6.67
2019-03-23T05:52:28.703Z,6.69
2019-03-23T05:53:28.672Z,6.74
2019-03-23T05:54:28.685Z,6.64
2019-03-23T05:55:28.655Z,6.74
2019-03-23T05:56:28.657Z,6.74
2019-03-23T05:57:28.634Z,6.74
2019-03-23T05:58:28.627Z,6.69
2019-03-23T05:59:28.643Z,6.81
2019-03-23T06:00:28.598Z,6.73
2019-03-23T06:01:28.584Z,6.79
2019-03-23T06:02:28.572Z,6.73
2019-03-23T06:03:28.566Z,6.84
2019-03-23T06:04:28.554Z,6.87
2019-03-23T06:05:28.568Z,6.88
2019-03-23T06:06:28.535Z,6.87
2019-03-23T06:07:28.524Z,6.79
2019-03-23T06:08:28.506Z,6.71
2019-03-23T06:09:28.496Z,6.74
2019-03-23T06:10:28.612Z,6.76
2019-03-23T06:11:28.474Z,6.80
2019-03-23T06:12:28.467Z,6.76
2019-03-23T06:13:28.461Z,6.79
2019-03-23T06:14:28.436Z,6.77
2019-03-23T06:15:28.444Z,6.79
2019-03-23T06:16:28.422Z,6.81
2019-03-23T06:17:28.406Z,6.81
2019-03-23T06:18:28.396Z,6.84
2019-03-23T06:19:28.396Z,6.76
2019-03-23T06:20:28.382Z,6.71
2019-03-23T06:21:28.364Z,6.70
2019-03-23T06:22:28.352Z,6.79
2019-03-23T06:23:28.340Z,6.77
2019-03-23T06:24:28.334Z,6.77
2019-03-23T06:25:28.338Z,6.80
2019-03-23T06:26:28.305Z,6.84
2019-03-23T06:27:28.298Z,6.84
2019-03-23T06:28:28.278Z,6.91
2019-03-23T06:29:28.276Z,6.91
2019-03-23T06:30:28.292Z,6.88
2019-03-23T06:31:28.248Z,6.81
2019-03-23T06:32:28.248Z,6.85
2019-03-23T06:33:28.222Z,6.85
2019-03-23T06:34:28.220Z,6.87
2019-03-23T06:35:28.226Z,6.92
2019-03-23T06:36:28.214Z,6.94
2019-03-23T06:37:28.182Z,7.06
2019-03-23T06:38:28.170Z,7.03
2019-03-23T06:39:28.172Z,6.98
2019-03-23T06:40:28.184Z,6.99
2019-03-23T06:41:28.136Z,7.05
2019-03-23T06:42:28.135Z,7.13
2019-03-23T06:43:28.113Z,7.15
2019-03-23T06:44:28.113Z,7.10
2019-03-23T06:45:28.119Z,7.21
2019-03-23T06:46:28.100Z,7.17
2019-03-23T06:47:28.085Z,7.25
2019-03-23T06:48:28.058Z,7.31
2019-03-23T06:49:28.069Z,7.34
2019-03-23T06:50:28.040Z,7.32
2019-03-23T06:51:28.065Z,7.37
2019-03-23T06:52:28.019Z,7.48
2019-03-23T06:53:28.004Z,7.45
2019-03-23T06:54:28.074Z,7.53
2019-03-23T06:55:28.007Z,7.46
2019-03-23T06:56:28.004Z,7.45
2019-03-23T06:57:27.960Z,7.60
2019-03-23T06:58:27.962Z,7.60
2019-03-23T06:59:28.005Z,7.63
2019-03-23T07:00:27.966Z,7.67
2019-03-23T07:01:27.931Z,7.58
2019-03-23T07:02:27.903Z,7.64
2019-03-23T07:03:27.904Z,7.71
2019-03-23T07:04:27.952Z,7.74
2019-03-23T07:05:27.862Z,7.82
2019-03-23T07:06:27.867Z,7.80
2019-03-23T07:07:27.853Z,7.86
2019-03-23T07:08:32.142Z,7.85
2019-03-23T07:09:27.830Z,7.87
2019-03-23T07:10:27.806Z,7.89
2019-03-23T07:11:27.898Z,7.93
2019-03-23T07:12:27.796Z,7.95
2019-03-23T07:13:27.794Z,7.98
2019-03-23T07:14:27.762Z,8.01
2019-03-23T07:15:27.750Z,7.95
2019-03-23T07:16:27.758Z,8.11
2019-03-23T07:17:27.728Z,7.98
2019-03-23T07:18:27.726Z,8.15
2019-03-23T07:19:27.703Z,8.08
2019-03-23T07:20:27.696Z,8.18
2019-03-23T07:21:27.702Z,8.05
2019-03-23T07:22:27.685Z,8.26
2019-03-23T07:23:27.664Z,8.25
2019-03-23T07:24:27.657Z,8.36
2019-03-23T07:25:27.636Z,8.38
2019-03-23T07:26:27.646Z,8.50
2019-03-23T07:27:27.620Z,8.48
2019-03-23T07:28:27.603Z,8.62
2019-03-23T07:29:27.607Z,8.68
2019-03-23T07:30:27.606Z,8.66
2019-03-23T07:31:27.605Z,8.73
2019-03-23T07:32:27.561Z,8.81
2019-03-23T07:33:27.550Z,8.79
2019-03-23T07:34:27.538Z,8.92
2019-03-23T07:35:27.543Z,9.05
2019-03-23T07:36:27.544Z,9.10
2019-03-23T07:37:27.508Z,9.24
2019-03-23T07:38:27.490Z,9.29
2019-03-23T07:39:30.361Z,9.20
2019-03-23T07:40:27.473Z,9.38
2019-03-23T07:41:27.487Z,9.33
2019-03-23T07:42:27.448Z,9.38
2019-03-23T07:43:27.436Z,9.42
2019-03-23T07:44:27.424Z,9.47
2019-03-23T07:45:27.415Z,9.56
2019-03-23T07:46:27.420Z,9.64
2019-03-23T07:47:27.403Z,9.72
2019-03-23T07:48:28.531Z,9.84
2019-03-23T07:49:27.373Z,9.79
2019-03-23T07:50:27.367Z,9.86
2019-03-23T07:51:27.375Z,10.01
2019-03-23T07:52:27.346Z,9.91
2019-03-23T07:53:27.322Z,10.12
2019-03-23T07:54:27.320Z,10.12
2019-03-23T07:55:27.302Z,10.22
2019-03-23T07:56:27.308Z,10.25
2019-03-23T07:57:27.278Z,10.33
2019-03-23T07:58:27.291Z,10.34
2019-03-23T07:59:27.254Z,10.44
2019-03-23T08:00:27.243Z,10.51
2019-03-23T08:01:27.255Z,10.48
2019-03-23T08:02:27.233Z,10.55
2019-03-23T08:03:27.267Z,10.66
2019-03-23T08:04:27.212Z,10.74
2019-03-23T08:05:27.193Z,10.73
2019-03-23T08:06:27.194Z,10.68
2019-03-23T08:07:27.166Z,10.79
2019-03-23T08:08:27.156Z,10.86
2019-03-23T08:09:37.155Z,10.85
2019-03-23T08:10:28.147Z,11.00
2019-03-23T08:11:27.139Z,11.15
2019-03-23T08:12:27.109Z,11.21
2019-03-23T08:13:27.688Z,11.33
2019-03-23T08:14:27.091Z,11.42
2019-03-23T08:15:27.086Z,11.51
2019-03-23T08:16:27.128Z,11.55
2019-03-23T08:17:27.057Z,11.54
2019-03-23T08:18:27.050Z,11.64
2019-03-23T08:19:27.039Z,11.69
2019-03-23T08:20:27.015Z,11.72
2019-03-23T08:21:27.027Z,11.82
2019-03-23T08:22:27.000Z,11.90
2019-03-23T08:23:26.990Z,11.91
2019-03-23T08:24:26.982Z,11.95
2019-03-23T08:25:26.973Z,11.95
2019-03-23T08:26:26.980Z,12.02
2019-03-23T08:27:26.969Z,12.07
2019-03-23T08:28:26.934Z,12.12
2019-03-23T08:29:26.914Z,12.23
2019-03-23T08:30:26.908Z,12.28
2019-03-23T08:31:26.893Z,12.37
2019-03-23T08:32:26.904Z,12.45
2019-03-23T08:33:26.874Z,12.49
2019-03-23T08:34:26.881Z,12.52
2019-03-23T08:35:26.849Z,12.53
2019-03-23T08:36:26.843Z,12.47
2019-03-23T08:37:26.851Z,12.68
2019-03-23T08:38:26.824Z,12.82
2019-03-23T08:39:26.812Z,12.79
2019-03-23T08:40:26.793Z,12.82
2019-03-23T08:41:26.798Z,12.79
2019-03-23T08:42:26.794Z,12.79
2019-03-23T08:43:26.759Z,12.93
2019-03-23T08:44:26.754Z,13.00
2019-03-23T08:45:26.734Z,13.08
2019-03-23T08:46:26.724Z,13.14
2019-03-23T08:47:26.736Z,13.22
2019-03-23T08:48:26.716Z,13.26
2019-03-23T08:49:28.598Z,13.45
2019-03-23T08:50:26.697Z,13.55
2019-03-23T08:51:26.723Z,13.51
2019-03-23T08:52:28.890Z,13.60
2019-03-23T08:53:26.649Z,13.66
2019-03-23T08:54:26.633Z,13.79
2019-03-23T08:55:26.630Z,13.71
2019-03-23T08:56:26.614Z,13.69
2019-03-23T08:57:26.638Z,13.78
2019-03-23T08:58:26.589Z,13.81
2019-03-23T08:59:26.578Z,13.85
2019-03-23T09:00:26.587Z,13.95
2019-03-23T09:01:26.562Z,14.00
2019-03-23T09:02:26.553Z,14.04
2019-03-23T09:03:26.550Z,14.04
2019-03-23T09:04:26.518Z,14.12
2019-03-23T09:05:26.510Z,14.07
2019-03-23T09:06:26.546Z,14.14
2019-03-23T09:07:26.497Z,14.20
2019-03-23T09:08:26.494Z,14.22
2019-03-23T09:09:26.489Z,14.22
2019-03-23T09:10:26.452Z,14.37
2019-03-23T09:11:26.437Z,14.36
2019-03-23T09:12:26.432Z,14.37
2019-03-23T09:13:26.441Z,14.37
2019-03-23T09:14:26.415Z,14.37
2019-03-23T09:15:26.391Z,14.43
2019-03-23T09:16:26.400Z,14.39
2019-03-23T09:17:26.371Z,14.42
2019-03-23T09:18:26.384Z,14.51
2019-03-23T09:19:26.351Z,14.50
2019-03-23T09:20:26.340Z,14.51
2019-03-23T09:21:26.325Z,14.46
2019-03-23T09:22:26.317Z,14.61
2019-03-23T09:23:26.326Z,14.61
2019-03-23T09:24:26.310Z,14.60
2019-03-23T09:25:26.282Z,14.70
2019-03-23T09:26:26.269Z,14.70
2019-03-23T09:27:26.258Z,14.69
2019-03-23T09:28:26.273Z,14.86
2019-03-23T09:29:26.239Z,14.83
2019-03-23T09:30:26.224Z,14.89
2019-03-23T09:31:26.210Z,15.03
2019-03-23T09:32:26.198Z,15.14
2019-03-23T09:33:26.230Z,15.16
2019-03-23T09:34:26.182Z,15.17
2019-03-23T09:35:26.176Z,15.17
2019-03-23T09:36:26.156Z,15.19
2019-03-23T09:37:26.150Z,15.25
2019-03-23T09:38:26.174Z,15.29
2019-03-23T09:39:26.122Z,15.23
2019-03-23T09:40:26.120Z,15.27
2019-03-23T09:41:26.112Z,15.32
2019-03-23T09:42:26.086Z,15.49
2019-03-23T09:43:26.099Z,15.38
2019-03-23T09:44:26.075Z,15.46
2019-03-23T09:45:26.055Z,15.47
2019-03-23T09:46:26.043Z,15.51
2019-03-23T09:47:26.038Z,15.67
2019-03-23T09:48:26.051Z,15.57
2019-03-23T09:49:26.022Z,15.76
2019-03-23T09:50:26.005Z,15.84
2019-03-23T09:51:26.221Z,15.86
2019-03-23T09:52:25.985Z,15.92
2019-03-23T09:53:25.968Z,15.76
2019-03-23T09:54:25.980Z,15.82
2019-03-23T09:55:25.951Z,15.74
2019-03-23T09:56:25.940Z,15.84
2019-03-23T09:57:25.921Z,15.94
2019-03-23T09:58:25.912Z,15.97
2019-03-23T09:59:25.921Z,16.11
2019-03-23T10:00:25.893Z,16.42
2019-03-23T10:01:25.900Z,16.82
2019-03-23T10:02:25.861Z,17.06
2019-03-23T10:03:25.857Z,17.23
2019-03-23T10:04:25.865Z,17.31
2019-03-23T10:05:25.830Z,17.52
2019-03-23T10:06:25.813Z,17.86
2019-03-23T10:07:25.809Z,17.99
2019-03-23T10:08:25.820Z,18.14
2019-03-23T10:09:25.832Z,18.20
2019-03-23T10:10:25.802Z,18.25
2019-03-23T10:11:25.761Z,18.70
2019-03-23T10:12:25.811Z,18.88
2019-03-23T10:13:25.748Z,19.29
2019-03-23T10:14:25.775Z,19.48
2019-03-23T10:15:25.734Z,19.83
2019-03-23T10:16:25.703Z,20.05
2019-03-23T10:17:25.690Z,20.17
2019-03-23T10:18:25.683Z,20.41
2019-03-23T10:19:25.694Z,20.72
2019-03-23T10:20:26.330Z,20.92
2019-03-23T10:21:25.767Z,21.10
2019-03-23T10:22:25.639Z,20.97
2019-03-23T10:23:25.628Z,20.99
2019-03-23T10:24:25.748Z,21.04
2019-03-23T10:25:25.600Z,21.27
2019-03-23T10:26:25.593Z,21.47
2019-03-23T10:27:25.597Z,21.59
2019-03-23T10:28:25.567Z,21.82
2019-03-23T10:29:25.558Z,22.22
2019-03-23T10:30:25.666Z,22.46
2019-03-23T10:31:25.532Z,22.83
2019-03-23T10:32:25.530Z,23.23
2019-03-23T10:33:25.652Z,23.55
2019-03-23T10:34:25.503Z,23.75
2019-03-23T10:35:25.522Z,23.83
2019-03-23T10:36:25.488Z,24.02
2019-03-23T10:37:26.138Z,23.94
2019-03-23T10:38:25.470Z,24.02
2019-03-23T10:39:25.476Z,24.09
2019-03-23T10:40:32.335Z,23.83
2019-03-23T10:41:26.423Z,23.94
2019-03-23T10:42:25.414Z,23.95
2019-03-23T10:43:25.408Z,24.13
2019-03-23T10:44:25.415Z,24.06
2019-03-23T10:45:25.589Z,23.73
2019-03-23T10:46:25.368Z,23.80
2019-03-23T10:47:25.452Z,23.94
2019-03-23T10:48:25.352Z,23.90
2019-03-23T10:49:25.352Z,24.20
2019-03-23T10:50:25.342Z,24.05
2019-03-23T10:51:25.408Z,24.24
2019-03-23T10:52:25.466Z,24.61
2019-03-23T10:53:25.294Z,25.08
2019-03-23T10:54:25.285Z,25.47
2019-03-23T10:55:25.273Z,25.64
2019-03-23T10:56:25.287Z,25.25
2019-03-23T10:57:25.251Z,25.08
2019-03-23T10:58:25.280Z,25.00
2019-03-23T10:59:25.238Z,25.17
2019-03-23T11:00:25.348Z,25.25
2019-03-23T11:01:25.225Z,25.47
2019-03-23T11:02:25.196Z,25.58
2019-03-23T11:03:25.196Z,25.88
2019-03-23T11:04:25.195Z,26.23
2019-03-23T11:05:25.170Z,26.48
2019-03-23T11:06:25.186Z,26.80
2019-03-23T11:07:25.156Z,26.85
2019-03-23T11:08:25.177Z,26.82
2019-03-23T11:09:25.123Z,27.03
2019-03-23T11:10:25.122Z,26.39
2019-03-23T11:11:25.131Z,25.83
2019-03-23T11:12:25.113Z,25.40
2019-03-23T11:13:25.084Z,25.50
2019-03-23T11:14:25.085Z,25.79
2019-03-23T11:15:25.068Z,26.09
2019-03-23T11:16:25.062Z,26.18
2019-03-23T11:17:25.196Z,26.50
2019-03-23T11:18:25.023Z,27.10
2019-03-23T11:19:25.026Z,27.87
2019-03-23T11:20:25.008Z,28.31
2019-03-23T11:21:25.016Z,28.29
2019-03-23T11:22:25.007Z,28.03
2019-03-23T11:23:24.992Z,28.14
2019-03-23T11:24:24.989Z,28.19
2019-03-23T11:25:24.989Z,28.40
2019-03-23T11:26:24.951Z,27.94
2019-03-23T11:27:24.953Z,28.29
2019-03-23T11:28:24.928Z,28.56
2019-03-23T11:29:24.940Z,28.88
2019-03-23T11:30:24.906Z,29.37
2019-03-23T11:31:24.899Z,29.42
2019-03-23T11:32:24.909Z,29.45
2019-03-23T11:33:24.872Z,29.80
2019-03-23T11:34:24.865Z,29.26
2019-03-23T11:35:24.862Z,28.59
2019-03-23T11:36:24.847Z,28.04
2019-03-23T11:37:24.896Z,27.70
2019-03-23T11:38:24.835Z,27.63
2019-03-23T11:39:24.803Z,27.84
2019-03-23T11:40:24.798Z,27.85
2019-03-23T11:41:24.800Z,27.79
2019-03-23T11:42:24.802Z,27.74
2019-03-23T11:43:24.794Z,27.65
2019-03-23T11:44:24.755Z,27.84
2019-03-23T11:45:24.747Z,28.06
2019-03-23T11:46:24.736Z,28.48
2019-03-23T11:47:24.752Z,28.21
2019-03-23T11:48:24.736Z,27.85
2019-03-23T11:49:24.718Z,28.04
2019-03-23T11:50:24.699Z,28.14
2019-03-23T11:51:24.681Z,28.39
2019-03-23T11:52:24.679Z,28.34
2019-03-23T11:53:24.683Z,27.90
2019-03-23T11:54:24.662Z,27.63
2019-03-23T11:55:24.651Z,27.78
2019-03-23T11:56:24.635Z,27.93
2019-03-23T11:57:24.628Z,28.03
2019-03-23T11:58:24.633Z,28.30
2019-03-23T11:59:24.613Z,28.15
2019-03-23T12:00:24.598Z,27.81
2019-03-23T12:01:24.596Z,27.67
2019-03-23T12:02:24.570Z,27.66
2019-03-23T12:03:24.583Z,27.62
2019-03-23T12:04:25.256Z,26.80
2019-03-23T12:05:24.551Z,26.95
2019-03-23T12:06:24.579Z,26.88
2019-03-23T12:07:24.560Z,26.88
2019-03-23T12:08:24.536Z,27.19
2019-03-23T12:09:24.518Z,26.99
2019-03-23T12:10:24.481Z,25.87
2019-03-23T12:11:25.005Z,25.98
2019-03-23T12:12:24.471Z,26.18
2019-03-23T12:13:24.476Z,26.52
2019-03-23T12:14:24.449Z,26.05
2019-03-23T12:15:24.431Z,25.80
2019-03-23T12:16:24.420Z,26.12
2019-03-23T12:17:24.428Z,26.30
2019-03-23T12:18:24.425Z,26.26
2019-03-23T12:19:24.408Z,26.51
2019-03-23T12:20:24.386Z,26.39
2019-03-23T12:21:24.378Z,26.15
2019-03-23T12:22:24.366Z,25.82
2019-03-23T12:23:24.743Z,25.83
2019-03-23T12:24:24.345Z,25.85
2019-03-23T12:25:24.340Z,25.97
2019-03-23T12:26:24.321Z,26.02
2019-03-23T12:27:24.823Z,25.51
2019-03-23T12:28:24.326Z,25.24
2019-03-23T12:29:24.300Z,25.20
2019-03-23T12:30:24.283Z,24.99
2019-03-23T12:31:25.157Z,24.12
2019-03-23T12:32:24.272Z,23.46
2019-03-23T12:33:24.285Z,23.23
2019-03-23T12:34:24.261Z,23.39
2019-03-23T12:35:24.229Z,23.70
2019-03-23T12:36:24.225Z,22.85
2019-03-23T12:37:24.220Z,22.25
2019-03-23T12:38:24.213Z,21.62
2019-03-23T12:39:24.228Z,21.83
2019-03-23T12:40:24.182Z,22.22
2019-03-23T12:41:24.172Z,22.45
2019-03-23T12:42:24.164Z,22.90
2019-03-23T12:43:24.165Z,22.42
2019-03-23T12:44:24.139Z,21.92
2019-03-23T12:45:24.162Z,21.83
2019-03-23T12:46:24.119Z,21.79
2019-03-23T12:47:24.106Z,21.67
2019-03-23T12:48:24.100Z,21.96
2019-03-23T12:49:24.096Z,21.96
2019-03-23T12:50:24.088Z,22.28
2019-03-23T12:51:24.061Z,22.07
2019-03-23T12:52:24.055Z,21.77
2019-03-23T12:53:24.047Z,21.59
2019-03-23T12:54:24.033Z,21.34
2019-03-23T12:55:24.044Z,21.53
2019-03-23T12:56:24.018Z,21.75
2019-03-23T12:57:24.021Z,22.07
2019-03-23T12:58:23.988Z,22.28
2019-03-23T12:59:23.976Z,22.36
2019-03-23T13:00:24.007Z,22.39
2019-03-23T13:01:23.964Z,22.14
2019-03-23T13:02:23.995Z,22.42
2019-03-23T13:03:23.936Z,22.47
2019-03-23T13:04:23.931Z,23.07
2019-03-23T13:05:23.936Z,23.46
2019-03-23T13:06:23.911Z,23.42
2019-03-23T13:07:23.966Z,23.68